createdAt,value
2019-05-25T00:02:28.613Z,5.40
2019-05-25T00:05:10.396Z,5.37
2019-05-25T00:07:43.338Z,5.15
2019-05-25T00:10:15.828Z,5.70
2019-05-25T00:12:46.029Z,5.10
2019-05-25T00:15:34.043Z,5.70
2019-05-25T00:18:03.452Z,5.23
2019-05-25T00:20:35.904Z,5.42
2019-05-25T00:23:14.030Z,5.37
2019-05-25T00:25:43.178Z,5.75
2019-05-25T00:28:13.803Z,5.50
2019-05-25T00:30:44.977Z,5.70
2019-05-25T00:33:14.584Z,5.35
2019-05-25T00:35:44.432Z,5.60
2019-05-25T00:38:13.540Z,5.53
2019-05-25T00:40:44.762Z,5.70
2019-05-25T00:43:15.848Z,5.40
2019-05-25T00:45:45.959Z,5.12
2019-05-25T00:48:19.749Z,5.22
2019-05-25T00:50:49.691Z,5.05
2019-05-25T00:53:19.006Z,5.22
2019-05-25T00:55:48.558Z,5.17
2019-05-25T00:58:21.631Z,5.10
2019-05-25T01:00:51.121Z,5.58
2019-05-25T01:03:23.170Z,5.25
2019-05-25T01:05:53.949Z,5.30
2019-05-25T01:08:25.903Z,5.20
2019-05-25T01:10:56.933Z,5.17
2019-05-25T01:13:27.162Z,4.92
2019-05-25T01:15:57.311Z,5.22
2019-05-25T01:18:27.721Z,5.40
2019-05-25T01:21:00.993Z,5.50
2019-05-25T01:23:35.177Z,5.40
2019-05-25T01:26:07.754Z,5.30
2019-05-25T01:28:37.979Z,5.50
2019-05-25T01:31:08.092Z,5.28
2019-05-25T01:33:38.093Z,5.00
2019-05-25T01:36:07.914Z,5.47
2019-05-25T01:38:38.573Z,5.37
2019-05-25T01:41:10.507Z,5.50
2019-05-25T01:43:40.458Z,5.47
2019-05-25T01:46:09.792Z,5.50
2019-05-25T01:48:42.091Z,5.75
2019-05-25T01:51:12.640Z,5.12
2019-05-25T01:53:45.882Z,6.17
2019-05-25T01:56:14.139Z,6.07
2019-05-25T01:58:44.596Z,6.08
2019-05-25T02:01:15.573Z,5.95
2019-05-25T02:03:48.113Z,6.03
2019-05-25T02:06:19.009Z,5.35
2019-05-25T02:08:51.425Z,5.40
2019-05-25T02:11:24.748Z,5.35
2019-05-25T02:13:54.494Z,5.37
2019-05-25T02:16:27.756Z,5.90
2019-05-25T02:18:58.063Z,6.17
2019-05-25T02:21:28.672Z,6.07
2019-05-25T02:23:59.049Z,6.60
2019-05-25T02:26:41.902Z,6.50
2019-05-25T02:29:13.527Z,6.62
2019-05-25T02:31:43.286Z,6.20
2019-05-25T02:34:13.167Z,6.60
2019-05-25T02:36:47.958Z,6.60
2019-05-25T02:39:18.521Z,6.20
2019-05-25T02:41:48.846Z,6.75
2019-05-25T02:44:21.335Z,6.22
2019-05-25T02:46:52.267Z,6.37
2019-05-25T02:49:23.361Z,6.58
2019-05-25T02:51:57.278Z,6.30
2019-05-25T02:54:26.726Z,6.12
2019-05-25T02:56:58.626Z,6.10
2019-05-25T02:59:30.141Z,6.35
2019-05-25T03:02:00.491Z,6.53
2019-05-25T03:04:33.448Z,6.60
2019-05-25T03:07:04.305Z,6.60
2019-05-25T03:09:36.001Z,7.10
2019-05-25T03:12:05.477Z,6.93
2019-05-25T03:14:35.793Z,6.67
2019-05-25T03:17:06.404Z,6.70
2019-05-25T03:19:35.841Z,6.70
2019-05-25T03:22:05.333Z,6.92
2019-05-25T03:24:35.992Z,6.30
2019-05-25T03:27:06.741Z,6.70
2019-05-25T03:29:40.282Z,6.87
2019-05-25T03:32:12.104Z,7.10
2019-05-25T03:34:43.990Z,7.10
2019-05-25T03:37:13.877Z,6.90
2019-05-25T03:39:46.800Z,7.00
2019-05-25T03:42:17.618Z,7.05
2019-05-25T03:44:51.170Z,7.17
2019-05-25T03:47:23.553Z,7.10
2019-05-25T03:49:57.761Z,7.20
2019-05-25T03:52:28.650Z,7.50
2019-05-25T03:55:03.152Z,6.67
2019-05-25T03:57:32.749Z,7.50
2019-05-25T04:00:05.500Z,7.00
2019-05-25T04:02:36.757Z,7.00
2019-05-25T04:05:08.135Z,6.85
2019-05-25T04:07:37.752Z,7.15
2019-05-25T04:10:09.020Z,6.90
2019-05-25T04:12:41.980Z,7.03
2019-05-25T04:15:13.737Z,7.30
2019-05-25T04:17:44.569Z,6.90
2019-05-25T04:20:15.464Z,7.58
2019-05-25T04:22:46.183Z,7.62
2019-05-25T04:25:17.199Z,7.55
2019-05-25T04:27:48.174Z,7.60
2019-05-25T04:30:18.255Z,7.97
2019-05-25T04:32:52.347Z,8.27
2019-05-25T04:35:23.388Z,8.30
2019-05-25T04:37:53.454Z,9.30
2019-05-25T04:40:23.427Z,9.38
2019-05-25T04:42:53.440Z,9.28
2019-05-25T04:45:24.788Z,9.05
2019-05-25T04:48:01.695Z,9.23
2019-05-25T04:50:32.280Z,8.60
2019-05-25T04:53:05.762Z,8.65
2019-05-25T04:55:35.427Z,8.60
2019-05-25T04:58:07.986Z,9.30
2019-05-25T05:00:37.707Z,10.03
2019-05-25T05:03:13.754Z,9.78
2019-05-25T05:05:42.728Z,10.03
2019-05-25T05:08:13.180Z,9.88
2019-05-25T05:10:43.974Z,9.53
2019-05-25T05:13:14.611Z,9.45
2019-05-25T05:15:43.879Z,9.55
2019-05-25T05:18:13.251Z,9.95
2019-05-25T05:20:42.771Z,9.30
2019-05-25T05:23:12.719Z,9.78
2019-05-25T05:25:44.478Z,9.50
2019-05-25T05:28:19.791Z,9.63
2019-05-25T05:30:51.991Z,9.80
2019-05-25T05:33:23.588Z,9.45
2019-05-25T05:36:00.552Z,9.23
2019-05-25T05:38:32.959Z,9.63
2019-05-25T05:41:07.773Z,9.55
2019-05-25T05:43:41.168Z,9.40
2019-05-25T05:46:14.890Z,10.58
2019-05-25T05:48:46.019Z,10.43
2019-05-25T05:51:24.001Z,10.30
2019-05-25T05:53:55.505Z,9.80
2019-05-25T05:56:28.121Z,9.23
2019-05-25T05:59:18.120Z,9.30
2019-05-25T06:02:01.835Z,9.45
2019-05-25T06:04:35.633Z,9.13
2019-05-25T06:07:06.216Z,8.35
2019-05-25T06:09:37.611Z,8.08
2019-05-25T06:12:07.247Z,8.08
2019-05-25T06:14:37.234Z,7.85
2019-05-25T06:17:06.268Z,7.25
2019-05-25T06:19:36.806Z,6.08
2019-05-25T06:22:06.451Z,5.83
2019-05-25T06:24:35.547Z,5.80
2019-05-25T06:27:06.609Z,5.87
2019-05-25T06:29:38.916Z,5.90
2019-05-25T06:32:08.526Z,6.20
2019-05-25T06:34:39.971Z,5.90
2019-05-25T06:37:09.215Z,5.30
2019-05-25T06:39:38.292Z,5.35
2019-05-25T06:42:10.709Z,5.03
2019-05-25T06:44:40.978Z,4.95
2019-05-25T06:47:18.534Z,5.00
2019-05-25T06:49:51.611Z,5.03
2019-05-25T06:52:21.894Z,5.03
2019-05-25T06:54:52.387Z,4.85
2019-05-25T06:57:23.845Z,5.40
2019-05-25T06:59:52.884Z,5.03
2019-05-25T07:02:28.295Z,5.35
2019-05-25T07:04:57.577Z,4.87
2019-05-25T07:07:27.064Z,5.00
2019-05-25T07:09:56.107Z,5.70
2019-05-25T07:12:24.917Z,5.10
2019-05-25T07:15:12.964Z,5.05
2019-05-25T07:17:48.419Z,5.00
2019-05-25T07:20:18.995Z,5.10
2019-05-25T07:22:49.591Z,4.67
2019-05-25T07:25:23.297Z,5.50
2019-05-25T07:27:59.889Z,4.97
2019-05-25T07:30:46.438Z,5.10
2019-05-25T07:33:33.020Z,4.83
2019-05-25T07:36:07.449Z,5.53
2019-05-25T07:38:36.011Z,5.00
2019-05-25T07:41:06.708Z,4.95
2019-05-25T07:43:45.748Z,5.30
2019-05-25T07:46:18.187Z,5.12
2019-05-25T07:51:44.298Z,5.20
2019-05-25T07:54:15.583Z,5.53
2019-05-25T07:56:45.986Z,5.50
2019-05-25T07:59:15.749Z,5.50
2019-05-25T08:01:50.484Z,5.60
2019-05-25T08:04:32.214Z,5.70
2019-05-25T08:07:04.054Z,5.67
2019-05-25T08:09:36.917Z,6.00
2019-05-25T08:12:07.836Z,6.30
2019-05-25T08:14:37.618Z,6.47
2019-05-25T08:17:19.091Z,6.25
2019-05-25T08:19:50.439Z,6.50
2019-05-25T08:22:21.899Z,6.00
2019-05-25T08:24:52.783Z,6.00
2019-05-25T08:27:32.344Z,6.28
2019-05-25T08:30:05.458Z,6.05
2019-05-25T08:32:34.635Z,6.03
2019-05-25T08:35:08.408Z,5.60
2019-05-25T08:37:40.736Z,5.40
2019-05-25T08:40:15.751Z,5.80
2019-05-25T08:42:50.934Z,5.78
2019-05-25T08:48:21.635Z,5.70
2019-05-25T08:51:02.622Z,6.08
2019-05-25T08:53:50.675Z,6.50
2019-05-25T08:56:32.226Z,5.93
2019-05-25T08:59:04.709Z,6.37
2019-05-25T09:01:35.956Z,6.00
2019-05-25T09:04:05.305Z,6.10
2019-05-25T09:06:34.729Z,6.15
2019-05-25T09:09:08.482Z,5.70
2019-05-25T09:11:41.171Z,6.03
2019-05-25T09:14:37.172Z,5.83
2019-05-25T09:17:10.814Z,6.53
2019-05-25T09:19:49.321Z,6.30
2019-05-25T09:22:25.142Z,6.37
2019-05-25T09:25:02.969Z,6.43
2019-05-25T09:27:33.770Z,6.80
2019-05-25T09:30:03.249Z,6.17
2019-05-25T09:32:39.033Z,6.42
2019-05-25T09:35:10.597Z,6.90
2019-05-25T09:37:39.779Z,6.58
2019-05-25T09:40:09.821Z,6.40
2019-05-25T09:42:40.533Z,7.05
2019-05-25T09:45:17.170Z,6.87
2019-05-25T09:48:01.752Z,7.10
2019-05-25T09:50:35.298Z,7.25
2019-05-25T09:53:06.393Z,6.78
2019-05-25T09:55:37.494Z,7.40
2019-05-25T09:58:17.311Z,8.00
2019-05-25T10:00:46.657Z,8.00
2019-05-25T10:03:19.029Z,7.90
2019-05-25T10:05:48.228Z,7.97
2019-05-25T10:08:20.759Z,8.28
2019-05-25T10:10:52.735Z,8.73
2019-05-25T10:13:23.249Z,8.35
2019-05-25T10:15:55.740Z,8.73
2019-05-25T10:18:24.776Z,9.10
2019-05-25T10:21:14.333Z,8.95
2019-05-25T10:23:53.582Z,9.53
2019-05-25T10:26:24.722Z,8.90
2019-05-25T10:29:08.855Z,8.53
2019-05-25T10:31:46.810Z,9.08
2019-05-25T10:34:20.335Z,9.55
2019-05-25T10:36:59.347Z,9.13
2019-05-25T10:39:42.703Z,9.48
2019-05-25T10:42:14.095Z,9.75
2019-05-25T10:44:58.521Z,10.20
2019-05-25T10:47:38.796Z,9.70
2019-05-25T10:50:09.034Z,9.43
2019-05-25T10:52:37.916Z,8.75
2019-05-25T10:55:17.599Z,8.95
2019-05-25T10:57:49.360Z,9.20
2019-05-25T11:00:21.928Z,9.40
2019-05-25T11:02:53.291Z,9.63
2019-05-25T11:05:25.431Z,8.85
2019-05-25T11:07:54.980Z,9.08
2019-05-25T11:10:39.060Z,9.57
2019-05-25T11:13:12.465Z,8.73
2019-05-25T11:15:42.364Z,9.43
2019-05-25T11:18:16.630Z,9.55
2019-05-25T11:20:46.981Z,9.60
2019-05-25T11:23:18.838Z,8.25
2019-05-25T11:25:58.820Z,7.78
2019-05-25T11:28:33.964Z,8.93
2019-05-25T11:31:13.656Z,9.18
2019-05-25T11:33:50.437Z,9.00
2019-05-25T11:36:22.451Z,10.10
2019-05-25T11:41:53.460Z,9.18
2019-05-25T11:44:26.904Z,9.03
2019-05-25T11:47:08.027Z,9.88
2019-05-25T11:49:44.448Z,9.88
2019-05-25T11:52:14.122Z,10.23
2019-05-25T11:54:45.389Z,10.35
2019-05-25T11:57:29.533Z,10.70
2019-05-25T12:00:01.516Z,9.85
2019-05-25T12:02:33.332Z,10.40
2019-05-25T12:05:08.527Z,10.40
2019-05-25T12:07:38.459Z,9.40
2019-05-25T12:10:14.444Z,10.08
2019-05-25T12:12:44.805Z,10.08
2019-05-25T12:15:13.819Z,9.90
2019-05-25T12:17:46.571Z,9.70
2019-05-25T12:20:17.162Z,10.20
2019-05-25T12:22:50.747Z,9.50
2019-05-25T12:25:26.032Z,9.43
2019-05-25T12:28:01.059Z,9.08
2019-05-25T12:30:40.798Z,8.48
2019-05-25T12:33:08.741Z,7.75
2019-05-25T12:35:45.162Z,7.33
2019-05-25T12:38:14.350Z,7.12
2019-05-25T12:41:09.206Z,7.30
2019-05-25T12:43:38.631Z,8.00
2019-05-25T12:46:10.254Z,7.43
2019-05-25T12:48:39.632Z,7.97
2019-05-25T12:51:12.265Z,7.87
2019-05-25T12:53:48.925Z,7.45
2019-05-25T12:56:18.346Z,7.12
2019-05-25T12:58:49.641Z,7.78
2019-05-25T13:01:17.824Z,6.92
2019-05-25T13:03:51.302Z,7.12
2019-05-25T13:06:31.317Z,8.83
2019-05-25T13:08:57.682Z,9.40
2019-05-25T13:11:26.449Z,8.78
2019-05-25T13:13:55.822Z,10.13
2019-05-25T13:16:24.474Z,8.30
2019-05-25T13:18:53.455Z,8.50
2019-05-25T13:21:26.524Z,8.20
2019-05-25T13:23:56.974Z,7.90
2019-05-25T13:26:26.063Z,7.33
2019-05-25T13:28:55.741Z,7.75
2019-05-25T13:31:24.906Z,10.05
2019-05-25T13:33:55.346Z,10.48
2019-05-25T13:36:27.140Z,9.08
2019-05-25T13:38:55.932Z,10.00
2019-05-25T13:41:25.285Z,9.65
2019-05-25T13:43:55.246Z,9.38
2019-05-25T13:46:24.749Z,9.18
2019-05-25T13:48:55.854Z,9.13
2019-05-25T13:51:25.587Z,9.65
2019-05-25T13:53:55.956Z,9.03
2019-05-25T13:56:42.330Z,8.75
2019-05-25T13:59:12.264Z,8.53
2019-05-25T14:01:49.871Z,8.63
2019-05-25T14:04:19.175Z,7.75
2019-05-25T14:06:49.649Z,8.00
2019-05-25T14:09:21.703Z,7.90
2019-05-25T14:11:55.878Z,7.97
2019-05-25T14:14:38.526Z,8.10
2019-05-25T14:17:06.848Z,8.15
2019-05-25T14:19:41.305Z,7.90
2019-05-25T14:22:08.028Z,7.37
2019-05-25T14:24:40.332Z,7.90
2019-05-25T14:27:18.427Z,8.07
2019-05-25T14:30:02.783Z,8.30
2019-05-25T14:32:33.831Z,8.23
2019-05-25T14:35:03.183Z,7.92
2019-05-25T14:37:34.229Z,7.42
2019-05-25T14:40:03.228Z,8.05
2019-05-25T14:43:01.634Z,7.28
2019-05-25T14:45:38.089Z,7.78
2019-05-25T14:48:09.934Z,7.40
2019-05-25T14:51:00.314Z,7.70
2019-05-25T14:53:31.140Z,7.15
2019-05-25T14:56:07.111Z,6.28
2019-05-25T14:58:33.999Z,6.50
2019-05-25T15:01:03.077Z,6.00
2019-05-25T15:03:33.542Z,6.97
2019-05-25T15:06:04.236Z,7.05
2019-05-25T15:08:37.580Z,6.50
2019-05-25T15:11:07.882Z,7.67
2019-05-25T15:13:39.881Z,7.65
2019-05-25T15:16:08.879Z,8.25
2019-05-25T15:18:46.127Z,8.30
2019-05-25T15:21:24.749Z,8.43
2019-05-25T15:23:58.501Z,8.25
2019-05-25T15:26:33.892Z,8.63
2019-05-25T15:29:03.588Z,7.53
2019-05-25T15:31:32.816Z,7.90
2019-05-25T15:34:02.697Z,7.35
2019-05-25T15:36:34.958Z,7.55
2019-05-25T15:39:05.619Z,7.15
2019-05-25T15:41:35.560Z,8.05
2019-05-25T15:44:06.665Z,7.67
2019-05-25T15:46:39.922Z,7.22
2019-05-25T15:49:10.324Z,8.00
2019-05-25T15:51:49.862Z,7.90
2019-05-25T15:54:31.399Z,8.10
2019-05-25T15:57:22.051Z,8.18
2019-05-25T16:00:02.044Z,7.80
2019-05-25T16:02:36.540Z,7.67
2019-05-25T16:05:02.260Z,7.75
2019-05-25T16:07:32.035Z,7.42
2019-05-25T16:10:03.659Z,7.47
2019-05-25T16:12:33.847Z,8.35
2019-05-25T16:17:57.715Z,7.78
2019-05-25T16:20:43.468Z,7.25
2019-05-25T16:23:33.808Z,8.07
2019-05-25T16:26:06.503Z,7.70
2019-05-25T16:28:37.040Z,8.13
2019-05-25T16:31:14.842Z,8.13
2019-05-25T16:33:44.661Z,7.40
2019-05-25T16:36:25.557Z,7.50
2019-05-25T16:39:01.691Z,7.80
2019-05-25T16:41:31.698Z,8.85
2019-05-25T16:44:14.593Z,8.40
2019-05-25T16:46:44.517Z,8.23
2019-05-25T16:49:20.761Z,8.40
2019-05-25T16:51:50.006Z,8.25
2019-05-25T16:54:18.932Z,7.37
2019-05-25T16:56:47.991Z,7.65
2019-05-25T16:59:18.813Z,7.43
2019-05-25T17:01:53.143Z,7.17
2019-05-25T17:04:25.070Z,7.22
2019-05-25T17:07:08.596Z,6.97
2019-05-25T17:09:36.605Z,7.23
2019-05-25T17:12:05.680Z,6.47
2019-05-25T17:14:36.066Z,6.50
2019-05-25T17:17:05.145Z,6.78
2019-05-25T17:19:35.747Z,6.67
2019-05-25T17:22:07.873Z,7.15
2019-05-25T17:24:36.944Z,6.87
2019-05-25T17:27:06.402Z,5.87
2019-05-25T17:29:49.154Z,6.35
2019-05-25T17:32:29.351Z,3.22
2019-05-25T17:35:03.687Z,2.83
2019-05-25T17:37:33.730Z,2.90
2019-05-25T17:40:04.907Z,4.37
2019-05-25T17:42:33.636Z,5.20
2019-05-25T17:45:06.152Z,5.10
2019-05-25T17:47:54.740Z,5.83
2019-05-25T17:50:42.189Z,5.42
2019-05-25T17:53:12.219Z,6.05
2019-05-25T17:55:48.041Z,6.37
2019-05-25T17:58:18.349Z,5.70
2019-05-25T18:00:50.003Z,6.47
2019-05-25T18:03:19.267Z,6.10
2019-05-25T18:05:48.064Z,6.40
2019-05-25T18:08:17.953Z,6.37
2019-05-25T18:10:53.183Z,6.50
2019-05-25T18:13:17.551Z,6.17
2019-05-25T18:15:48.131Z,6.90
2019-05-25T18:18:17.514Z,6.72
2019-05-25T18:20:46.262Z,7.40
2019-05-25T18:23:20.732Z,7.45
2019-05-25T18:26:02.087Z,7.50
2019-05-25T18:28:32.305Z,6.80
2019-05-25T18:31:08.481Z,7.00
2019-05-25T18:33:41.727Z,7.05
2019-05-25T18:36:12.614Z,7.50
2019-05-25T18:38:53.115Z,7.20
2019-05-25T18:41:24.488Z,7.05
2019-05-25T18:43:56.452Z,7.60
2019-05-25T18:46:26.094Z,7.35
2019-05-25T18:49:02.083Z,7.47
2019-05-25T18:51:46.776Z,7.30
2019-05-25T18:54:18.438Z,7.10
2019-05-25T18:56:52.193Z,7.22
2019-05-25T18:59:27.058Z,7.22
2019-05-25T19:01:56.388Z,7.40
2019-05-25T19:04:45.439Z,6.92
2019-05-25T19:07:03.070Z,7.20
2019-05-25T19:09:34.213Z,7.30
2019-05-25T19:12:14.758Z,7.20
2019-05-25T19:14:45.109Z,6.97
2019-05-25T19:17:17.272Z,7.50
2019-05-25T19:19:46.457Z,7.78
2019-05-25T19:22:15.742Z,7.67
2019-05-25T19:24:51.460Z,6.95
2019-05-25T19:27:21.302Z,7.00
2019-05-25T19:29:50.757Z,6.92
2019-05-25T19:32:24.940Z,6.92
2019-05-25T19:35:07.469Z,6.97
2019-05-25T19:37:44.700Z,6.72
2019-05-25T19:40:17.270Z,6.60
2019-05-25T19:42:52.746Z,7.28
2019-05-25T19:45:23.745Z,6.90
2019-05-25T19:47:54.954Z,6.50
2019-05-25T19:50:26.486Z,6.30
2019-05-25T19:52:59.568Z,6.53
2019-05-25T19:55:34.512Z,6.22
2019-05-25T19:58:06.152Z,6.87
2019-05-25T20:00:38.824Z,6.33
2019-05-25T20:03:10.199Z,6.33
2019-05-25T20:05:40.533Z,6.28
2019-05-25T20:08:15.062Z,6.37
2019-05-25T20:10:46.090Z,6.33
2019-05-25T20:13:16.962Z,6.25
2019-05-25T20:15:50.609Z,5.97
2019-05-25T20:18:28.645Z,6.37
2019-05-25T20:21:01.725Z,5.72
2019-05-25T20:23:35.318Z,6.15
2019-05-25T20:26:05.906Z,6.30
2019-05-25T20:28:38.196Z,6.33
2019-05-25T20:31:10.755Z,6.53
2019-05-25T20:33:51.910Z,6.58
2019-05-25T20:36:22.559Z,6.72
2019-05-25T20:38:57.842Z,6.08
2019-05-25T20:41:29.091Z,6.80
2019-05-25T20:44:01.362Z,6.90
2019-05-25T20:46:31.145Z,6.87
2019-05-25T20:49:04.151Z,6.15
2019-05-25T20:51:35.487Z,6.35
2019-05-25T20:54:08.248Z,6.78
2019-05-25T20:56:38.944Z,6.65
2019-05-25T20:59:10.996Z,6.70
2019-05-25T21:01:44.004Z,6.42
2019-05-25T21:04:13.203Z,6.72
2019-05-25T21:06:44.109Z,7.15
2019-05-25T21:09:18.603Z,6.75
2019-05-25T21:11:47.855Z,6.62
2019-05-25T21:14:17.082Z,6.83
2019-05-25T21:16:47.645Z,6.80
2019-05-25T21:19:18.917Z,7.30
2019-05-25T21:21:47.775Z,6.67
2019-05-25T21:24:18.894Z,7.00
2019-05-25T21:26:53.934Z,6.62
2019-05-25T21:29:24.666Z,6.53
2019-05-25T21:31:55.502Z,6.87
2019-05-25T21:34:25.327Z,6.47
2019-05-25T21:36:54.292Z,6.53
2019-05-25T21:39:25.051Z,6.78
2019-05-25T21:41:56.832Z,7.00
2019-05-25T21:44:27.216Z,6.50
2019-05-25T21:46:57.584Z,6.35
2019-05-25T21:49:27.299Z,6.25
2019-05-25T21:51:58.255Z,6.60
2019-05-25T21:54:27.374Z,6.72
2019-05-25T21:56:59.113Z,6.72
2019-05-25T21:59:28.139Z,6.78
2019-05-25T22:02:01.650Z,6.97
2019-05-25T22:04:30.804Z,6.30
2019-05-25T22:07:00.158Z,6.50
2019-05-25T22:09:32.228Z,6.47
2019-05-25T22:12:01.767Z,6.80
2019-05-25T22:14:31.032Z,6.30
2019-05-25T22:17:02.277Z,6.30
2019-05-25T22:19:32.876Z,6.50
2019-05-25T22:22:09.409Z,6.40
2019-05-25T22:24:45.041Z,6.37
2019-05-25T22:27:21.114Z,6.60
2019-05-25T22:29:50.002Z,6.77
2019-05-25T22:32:21.673Z,6.72
2019-05-25T22:34:59.645Z,6.72
2019-05-25T22:37:30.089Z,6.57
2019-05-25T22:39:59.568Z,7.10
2019-05-25T22:42:29.042Z,7.10
2019-05-25T22:44:58.010Z,6.85
2019-05-25T22:47:27.494Z,6.65
2019-05-25T22:49:57.305Z,6.67
2019-05-25T22:52:30.438Z,7.25
2019-05-25T22:55:00.467Z,6.90
2019-05-25T22:57:30.048Z,6.90
2019-05-25T23:00:06.430Z,6.90
2019-05-25T23:02:35.756Z,7.25
2019-05-25T23:05:08.281Z,7.17
2019-05-25T23:07:41.866Z,6.95
2019-05-25T23:10:18.281Z,7.45
2019-05-25T23:12:47.649Z,7.42
2019-05-25T23:15:19.689Z,7.75
2019-05-25T23:17:55.731Z,7.42
2019-05-25T23:20:27.151Z,7.95
2019-05-25T23:22:59.307Z,8.20
2019-05-25T23:25:28.513Z,7.47
2019-05-25T23:27:58.043Z,7.97
2019-05-25T23:30:29.168Z,7.70
2019-05-25T23:32:59.749Z,7.75
2019-05-25T23:35:31.246Z,7.40
2019-05-25T23:38:03.492Z,7.30
2019-05-25T23:40:32.196Z,7.40
2019-05-25T23:43:06.551Z,7.92
2019-05-25T23:45:39.873Z,7.40
2019-05-25T23:48:11.433Z,7.22
2019-05-25T23:50:43.780Z,7.72
2019-05-25T23:53:14.199Z,8.08
2019-05-25T23:55:43.707Z,8.13
2019-05-25T23:58:15.631Z,8.10
